sensor_id;sensor_type;location;lat;lon;timestamp;P1;durP1;ratioP1;P2;durP2;ratioP2
44214;SDS011;29884;47.450;19.124;2022-08-21T00:00:05;8.25;;;7.85;;
44214;SDS011;29884;47.450;19.124;2022-08-21T00:02:33;8.43;;;8.02;;
44214;SDS011;29884;47.450;19.124;2022-08-21T00:04:58;8.20;;;7.57;;
44214;SDS011;29884;47.450;19.124;2022-08-21T00:07:24;8.00;;;7.60;;
44214;SDS011;29884;47.450;19.124;2022-08-21T00:09:50;8.85;;;8.25;;
44214;SDS011;29884;47.450;19.124;2022-08-21T00:12:17;7.78;;;7.38;;
44214;SDS011;29884;47.450;19.124;2022-08-21T00:14:43;8.45;;;7.95;;
44214;SDS011;29884;47.450;19.124;2022-08-21T00:17:08;8.15;;;7.65;;
44214;SDS011;29884;47.450;19.124;2022-08-21T00:19:34;8.80;;;8.25;;
44214;SDS011;29884;47.450;19.124;2022-08-21T00:22:00;8.02;;;7.63;;
44214;SDS011;29884;47.450;19.124;2022-08-21T00:24:26;8.02;;;7.72;;
44214;SDS011;29884;47.450;19.124;2022-08-21T00:26:52;8.13;;;7.72;;
44214;SDS011;29884;47.450;19.124;2022-08-21T00:29:18;8.50;;;8.00;;
44214;SDS011;29884;47.450;19.124;2022-08-21T00:31:44;7.55;;;7.05;;
44214;SDS011;29884;47.450;19.124;2022-08-21T00:34:11;6.78;;;6.47;;
44214;SDS011;29884;47.450;19.124;2022-08-21T00:36:38;7.93;;;7.53;;
44214;SDS011;29884;47.450;19.124;2022-08-21T00:39:06;7.88;;;7.55;;
44214;SDS011;29884;47.450;19.124;2022-08-21T00:41:33;7.82;;;7.53;;
44214;SDS011;29884;47.450;19.124;2022-08-21T00:44:01;7.90;;;7.25;;
44214;SDS011;29884;47.450;19.124;2022-08-21T00:46:28;7.60;;;7.30;;
44214;SDS011;29884;47.450;19.124;2022-08-21T00:48:55;7.00;;;6.50;;
44214;SDS011;29884;47.450;19.124;2022-08-21T00:51:23;7.57;;;7.25;;
44214;SDS011;29884;47.450;19.124;2022-08-21T00:53:53;7.85;;;7.45;;
44214;SDS011;29884;47.450;19.124;2022-08-21T00:56:22;6.97;;;6.57;;
44214;SDS011;29884;47.450;19.124;2022-08-21T00:58:48;8.48;;;7.50;;
44214;SDS011;29884;47.450;19.124;2022-08-21T01:01:15;7.40;;;7.10;;
44214;SDS011;29884;47.450;19.124;2022-08-21T01:03:41;7.20;;;6.75;;
44214;SDS011;29884;47.450;19.124;2022-08-21T01:06:07;8.05;;;7.55;;
44214;SDS011;29884;47.450;19.124;2022-08-21T01:08:34;7.93;;;7.53;;
44214;SDS011;29884;47.450;19.124;2022-08-21T01:11:00;8.50;;;8.00;;
44214;SDS011;29884;47.450;19.124;2022-08-21T01:13:28;7.22;;;6.72;;
44214;SDS011;29884;47.450;19.124;2022-08-21T01:15:57;7.80;;;7.50;;
44214;SDS011;29884;47.450;19.124;2022-08-21T01:18:26;7.10;;;6.80;;
44214;SDS011;29884;47.450;19.124;2022-08-21T01:23:27;7.25;;;6.85;;
44214;SDS011;29884;47.450;19.124;2022-08-21T01:25:52;7.63;;;7.15;;
44214;SDS011;29884;47.450;19.124;2022-08-21T01:28:18;8.48;;;7.93;;
44214;SDS011;29884;47.450;19.124;2022-08-21T01:30:46;7.18;;;6.75;;
44214;SDS011;29884;47.450;19.124;2022-08-21T01:33:13;8.18;;;7.68;;
44214;SDS011;29884;47.450;19.124;2022-08-21T01:35:39;8.23;;;7.72;;
44214;SDS011;29884;47.450;19.124;2022-08-21T01:38:04;7.68;;;7.28;;
44214;SDS011;29884;47.450;19.124;2022-08-21T01:40:30;7.75;;;7.35;;
44214;SDS011;29884;47.450;19.124;2022-08-21T01:42:56;8.07;;;7.72;;
44214;SDS011;29884;47.450;19.124;2022-08-21T01:45:22;8.13;;;7.68;;
44214;SDS011;29884;47.450;19.124;2022-08-21T01:47:48;9.18;;;8.48;;
44214;SDS011;29884;47.450;19.124;2022-08-21T01:50:15;7.07;;;6.57;;
44214;SDS011;29884;47.450;19.124;2022-08-21T01:52:43;8.30;;;7.82;;
44214;SDS011;29884;47.450;19.124;2022-08-21T01:55:10;8.43;;;7.82;;
44214;SDS011;29884;47.450;19.124;2022-08-21T01:57:36;8.95;;;8.15;;
44214;SDS011;29884;47.450;19.124;2022-08-21T02:00:07;8.52;;;8.02;;
44214;SDS011;29884;47.450;19.124;2022-08-21T02:02:35;8.13;;;7.55;;
44214;SDS011;29884;47.450;19.124;2022-08-21T02:05:02;8.50;;;7.85;;
44214;SDS011;29884;47.450;19.124;2022-08-21T02:07:35;8.73;;;8.13;;
44214;SDS011;29884;47.450;19.124;2022-08-21T02:10:06;8.70;;;8.10;;
44214;SDS011;29884;47.450;19.124;2022-08-21T02:12:33;8.82;;;8.23;;
44214;SDS011;29884;47.450;19.124;2022-08-21T02:14:59;8.73;;;8.27;;
44214;SDS011;29884;47.450;19.124;2022-08-21T02:17:25;9.30;;;8.70;;
44214;SDS011;29884;47.450;19.124;2022-08-21T02:19:51;8.65;;;8.07;;
44214;SDS011;29884;47.450;19.124;2022-08-21T02:22:17;9.35;;;8.65;;
44214;SDS011;29884;47.450;19.124;2022-08-21T02:24:43;9.30;;;8.25;;
44214;SDS011;29884;47.450;19.124;2022-08-21T02:27:09;8.93;;;8.43;;
44214;SDS011;29884;47.450;19.124;2022-08-21T02:29:34;8.90;;;8.27;;
44214;SDS011;29884;47.450;19.124;2022-08-21T02:32:00;8.30;;;7.60;;
44214;SDS011;29884;47.450;19.124;2022-08-21T02:34:26;9.02;;;8.32;;
44214;SDS011;29884;47.450;19.124;2022-08-21T02:36:52;8.73;;;7.95;;
44214;SDS011;29884;47.450;19.124;2022-08-21T02:39:17;9.32;;;8.52;;
44214;SDS011;29884;47.450;19.124;2022-08-21T02:41:43;8.68;;;7.97;;
44214;SDS011;29884;47.450;19.124;2022-08-21T02:44:09;9.52;;;8.88;;
44214;SDS011;29884;47.450;19.124;2022-08-21T02:46:34;10.35;;;9.55;;
44214;SDS011;29884;47.450;19.124;2022-08-21T02:49:00;9.98;;;9.35;;
44214;SDS011;29884;47.450;19.124;2022-08-21T02:51:26;10.18;;;9.48;;
44214;SDS011;29884;47.450;19.124;2022-08-21T02:53:52;9.32;;;8.68;;
44214;SDS011;29884;47.450;19.124;2022-08-21T02:56:18;9.70;;;8.88;;
44214;SDS011;29884;47.450;19.124;2022-08-21T02:58:47;9.25;;;8.45;;
44214;SDS011;29884;47.450;19.124;2022-08-21T03:01:14;9.82;;;8.93;;
44214;SDS011;29884;47.450;19.124;2022-08-21T03:03:41;9.57;;;8.70;;
44214;SDS011;29884;47.450;19.124;2022-08-21T03:06:09;9.70;;;8.73;;
44214;SDS011;29884;47.450;19.124;2022-08-21T03:08:36;9.93;;;9.05;;
44214;SDS011;29884;47.450;19.124;2022-08-21T03:11:03;11.23;;;10.25;;
44214;SDS011;29884;47.450;19.124;2022-08-21T03:13:29;10.57;;;9.55;;
44214;SDS011;29884;47.450;19.124;2022-08-21T03:15:55;9.25;;;8.00;;
44214;SDS011;29884;47.450;19.124;2022-08-21T03:18:21;9.40;;;8.60;;
44214;SDS011;29884;47.450;19.124;2022-08-21T03:20:47;9.07;;;8.27;;
44214;SDS011;29884;47.450;19.124;2022-08-21T03:23:13;9.80;;;8.90;;
44214;SDS011;29884;47.450;19.124;2022-08-21T03:25:40;9.13;;;8.25;;
44214;SDS011;29884;47.450;19.124;2022-08-21T03:28:08;9.07;;;8.27;;
44214;SDS011;29884;47.450;19.124;2022-08-21T03:30:37;8.98;;;8.35;;
44214;SDS011;29884;47.450;19.124;2022-08-21T03:33:03;9.25;;;8.57;;
44214;SDS011;29884;47.450;19.124;2022-08-21T03:35:29;9.13;;;8.32;;
44214;SDS011;29884;47.450;19.124;2022-08-21T03:37:55;9.98;;;9.05;;
44214;SDS011;29884;47.450;19.124;2022-08-21T03:40:21;8.07;;;7.43;;
44214;SDS011;29884;47.450;19.124;2022-08-21T03:42:47;9.30;;;8.52;;
44214;SDS011;29884;47.450;19.124;2022-08-21T03:45:14;8.40;;;7.80;;
44214;SDS011;29884;47.450;19.124;2022-08-21T03:47:55;9.25;;;8.45;;
44214;SDS011;29884;47.450;19.124;2022-08-21T03:50:21;9.25;;;8.35;;
44214;SDS011;29884;47.450;19.124;2022-08-21T03:52:47;8.88;;;8.18;;
44214;SDS011;29884;47.450;19.124;2022-08-21T03:55:13;8.95;;;8.25;;
44214;SDS011;29884;47.450;19.124;2022-08-21T03:57:39;8.98;;;8.18;;
44214;SDS011;29884;47.450;19.124;2022-08-21T04:00:04;9.25;;;8.13;;
44214;SDS011;29884;47.450;19.124;2022-08-21T04:02:33;10.18;;;9.18;;
44214;SDS011;29884;47.450;19.124;2022-08-21T04:04:59;8.95;;;8.18;;
44214;SDS011;29884;47.450;19.124;2022-08-21T04:07:25;8.93;;;8.20;;
44214;SDS011;29884;47.450;19.124;2022-08-21T04:09:50;8.95;;;8.15;;
44214;SDS011;29884;47.450;19.124;2022-08-21T04:12:16;9.43;;;8.70;;
44214;SDS011;29884;47.450;19.124;2022-08-21T04:14:42;10.32;;;9.38;;
44214;SDS011;29884;47.450;19.124;2022-08-21T04:17:07;9.00;;;8.10;;
44214;SDS011;29884;47.450;19.124;2022-08-21T04:19:33;9.82;;;8.68;;
44214;SDS011;29884;47.450;19.124;2022-08-21T04:21:59;9.93;;;9.13;;
44214;SDS011;29884;47.450;19.124;2022-08-21T04:24:24;9.95;;;8.95;;
44214;SDS011;29884;47.450;19.124;2022-08-21T04:26:50;10.15;;;9.25;;
44214;SDS011;29884;47.450;19.124;2022-08-21T04:29:16;9.10;;;8.40;;
44214;SDS011;29884;47.450;19.124;2022-08-21T04:31:41;8.32;;;7.63;;
44214;SDS011;29884;47.450;19.124;2022-08-21T04:34:08;9.00;;;8.40;;
44214;SDS011;29884;47.450;19.124;2022-08-21T04:36:34;9.43;;;8.63;;
44214;SDS011;29884;47.450;19.124;2022-08-21T04:39:00;9.65;;;8.38;;
44214;SDS011;29884;47.450;19.124;2022-08-21T04:41:26;9.05;;;8.25;;
44214;SDS011;29884;47.450;19.124;2022-08-21T04:43:53;8.73;;;8.02;;
44214;SDS011;29884;47.450;19.124;2022-08-21T04:46:22;8.98;;;8.27;;
44214;SDS011;29884;47.450;19.124;2022-08-21T04:48:48;9.38;;;8.48;;
44214;SDS011;29884;47.450;19.124;2022-08-21T04:51:15;9.30;;;8.50;;
44214;SDS011;29884;47.450;19.124;2022-08-21T04:53:49;8.77;;;8.07;;
44214;SDS011;29884;47.450;19.124;2022-08-21T04:56:22;9.15;;;8.38;;
44214;SDS011;29884;47.450;19.124;2022-08-21T04:59:03;9.15;;;8.35;;
44214;SDS011;29884;47.450;19.124;2022-08-21T05:01:32;9.05;;;8.15;;
44214;SDS011;29884;47.450;19.124;2022-08-21T05:04:02;9.95;;;9.25;;
44214;SDS011;29884;47.450;19.124;2022-08-21T05:06:30;9.20;;;8.40;;
44214;SDS011;29884;47.450;19.124;2022-08-21T05:09:02;8.85;;;8.18;;
44214;SDS011;29884;47.450;19.124;2022-08-21T05:11:29;8.23;;;7.43;;
44214;SDS011;29884;47.450;19.124;2022-08-21T05:13:56;9.32;;;8.57;;
44214;SDS011;29884;47.450;19.124;2022-08-21T05:16:21;9.52;;;8.80;;
44214;SDS011;29884;47.450;19.124;2022-08-21T05:18:47;9.05;;;8.25;;
44214;SDS011;29884;47.450;19.124;2022-08-21T05:21:13;8.75;;;7.97;;
44214;SDS011;29884;47.450;19.124;2022-08-21T05:23:38;8.63;;;7.85;;
44214;SDS011;29884;47.450;19.124;2022-08-21T05:26:04;8.63;;;7.93;;
44214;SDS011;29884;47.450;19.124;2022-08-21T05:28:30;8.88;;;8.18;;
44214;SDS011;29884;47.450;19.124;2022-08-21T05:30:56;9.07;;;8.20;;
44214;SDS011;29884;47.450;19.124;2022-08-21T05:33:22;8.68;;;7.97;;
44214;SDS011;29884;47.450;19.124;2022-08-21T05:35:52;9.00;;;8.23;;
44214;SDS011;29884;47.450;19.124;2022-08-21T05:38:20;7.20;;;6.70;;
44214;SDS011;29884;47.450;19.124;2022-08-21T05:40:47;7.93;;;7.38;;
44214;SDS011;29884;47.450;19.124;2022-08-21T05:43:13;8.05;;;7.45;;
44214;SDS011;29884;47.450;19.124;2022-08-21T05:45:39;7.32;;;6.82;;
44214;SDS011;29884;47.450;19.124;2022-08-21T05:48:16;7.03;;;6.63;;
44214;SDS011;29884;47.450;19.124;2022-08-21T05:50:46;8.05;;;7.55;;
44214;SDS011;29884;47.450;19.124;2022-08-21T05:53:14;7.70;;;7.20;;
44214;SDS011;29884;47.450;19.124;2022-08-21T05:55:41;7.85;;;7.15;;
44214;SDS011;29884;47.450;19.124;2022-08-21T05:58:07;8.32;;;7.72;;
44214;SDS011;29884;47.450;19.124;2022-08-21T06:00:33;7.38;;;6.88;;
44214;SDS011;29884;47.450;19.124;2022-08-21T06:02:59;7.65;;;7.05;;
44214;SDS011;29884;47.450;19.124;2022-08-21T06:05:25;7.55;;;7.05;;
44214;SDS011;29884;47.450;19.124;2022-08-21T06:07:51;7.32;;;6.82;;
44214;SDS011;29884;47.450;19.124;2022-08-21T06:10:17;7.30;;;6.88;;
44214;SDS011;29884;47.450;19.124;2022-08-21T06:12:43;7.45;;;6.85;;
44214;SDS011;29884;47.450;19.124;2022-08-21T06:15:09;7.07;;;6.38;;
44214;SDS011;29884;47.450;19.124;2022-08-21T06:17:35;8.02;;;7.53;;
44214;SDS011;29884;47.450;19.124;2022-08-21T06:20:01;7.05;;;6.55;;
44214;SDS011;29884;47.450;19.124;2022-08-21T06:22:27;7.38;;;6.88;;
44214;SDS011;29884;47.450;19.124;2022-08-21T06:24:54;7.50;;;6.90;;
44214;SDS011;29884;47.450;19.124;2022-08-21T06:27:19;6.97;;;6.45;;
44214;SDS011;29884;47.450;19.124;2022-08-21T06:29:45;7.38;;;6.88;;
44214;SDS011;29884;47.450;19.124;2022-08-21T06:32:11;7.20;;;6.70;;
44214;SDS011;29884;47.450;19.124;2022-08-21T06:34:38;6.78;;;6.38;;
44214;SDS011;29884;47.450;19.124;2022-08-21T06:37:05;6.55;;;6.15;;
44214;SDS011;29884;47.450;19.124;2022-08-21T06:39:31;7.22;;;6.82;;
44214;SDS011;29884;47.450;19.124;2022-08-21T06:41:57;6.65;;;6.25;;
44214;SDS011;29884;47.450;19.124;2022-08-21T06:44:23;7.93;;;7.30;;
44214;SDS011;29884;47.450;19.124;2022-08-21T06:46:49;6.68;;;6.28;;
44214;SDS011;29884;47.450;19.124;2022-08-21T06:49:15;8.18;;;7.70;;
44214;SDS011;29884;47.450;19.124;2022-08-21T06:51:40;7.07;;;6.57;;
44214;SDS011;29884;47.450;19.124;2022-08-21T06:54:06;7.03;;;6.63;;
44214;SDS011;29884;47.450;19.124;2022-08-21T06:56:32;6.57;;;6.18;;
44214;SDS011;29884;47.450;19.124;2022-08-21T06:59:00;7.63;;;7.13;;
44214;SDS011;29884;47.450;19.124;2022-08-21T07:01:26;6.88;;;6.47;;
44214;SDS011;29884;47.450;19.124;2022-08-21T07:03:52;7.65;;;7.10;;
44214;SDS011;29884;47.450;19.124;2022-08-21T07:06:17;7.30;;;6.90;;
44214;SDS011;29884;47.450;19.124;2022-08-21T07:08:43;6.88;;;6.47;;
44214;SDS011;29884;47.450;19.124;2022-08-21T07:11:10;7.82;;;7.07;;
44214;SDS011;29884;47.450;19.124;2022-08-21T07:13:42;7.03;;;6.47;;
44214;SDS011;29884;47.450;19.124;2022-08-21T07:16:08;7.45;;;6.85;;
44214;SDS011;29884;47.450;19.124;2022-08-21T07:18:34;6.90;;;6.50;;
44214;SDS011;29884;47.450;19.124;2022-08-21T07:21:03;7.10;;;6.60;;
44214;SDS011;29884;47.450;19.124;2022-08-21T07:23:33;6.90;;;6.38;;
44214;SDS011;29884;47.450;19.124;2022-08-21T07:26:04;6.22;;;5.82;;
44214;SDS011;29884;47.450;19.124;2022-08-21T07:28:31;6.80;;;6.40;;
44214;SDS011;29884;47.450;19.124;2022-08-21T07:30:57;6.40;;;5.90;;
44214;SDS011;29884;47.450;19.124;2022-08-21T07:33:25;6.75;;;6.35;;
44214;SDS011;29884;47.450;19.124;2022-08-21T07:35:52;6.57;;;6.18;;
44214;SDS011;29884;47.450;19.124;2022-08-21T07:38:19;7.82;;;6.78;;
44214;SDS011;29884;47.450;19.124;2022-08-21T07:40:46;7.35;;;6.85;;
44214;SDS011;29884;47.450;19.124;2022-08-21T07:43:13;6.93;;;6.30;;
44214;SDS011;29884;47.450;19.124;2022-08-21T07:45:41;6.00;;;5.70;;
44214;SDS011;29884;47.450;19.124;2022-08-21T07:48:07;6.85;;;6.35;;
44214;SDS011;29884;47.450;19.124;2022-08-21T07:50:33;6.75;;;6.35;;
44214;SDS011;29884;47.450;19.124;2022-08-21T07:52:59;7.35;;;6.85;;
44214;SDS011;29884;47.450;19.124;2022-08-21T07:55:25;7.03;;;6.53;;
44214;SDS011;29884;47.450;19.124;2022-08-21T07:57:50;6.40;;;5.90;;
44214;SDS011;29884;47.450;19.124;2022-08-21T08:00:20;6.80;;;6.30;;
44214;SDS011;29884;47.450;19.124;2022-08-21T08:02:48;5.80;;;5.40;;
44214;SDS011;29884;47.450;19.124;2022-08-21T08:05:16;6.10;;;5.50;;
44214;SDS011;29884;47.450;19.124;2022-08-21T08:07:43;6.53;;;6.13;;
44214;SDS011;29884;47.450;19.124;2022-08-21T08:10:09;8.07;;;7.47;;
44214;SDS011;29884;47.450;19.124;2022-08-21T08:12:36;5.93;;;5.55;;
44214;SDS011;29884;47.450;19.124;2022-08-21T08:15:04;7.20;;;6.70;;
44214;SDS011;29884;47.450;19.124;2022-08-21T08:17:33;6.40;;;6.00;;
44214;SDS011;29884;47.450;19.124;2022-08-21T08:19:59;6.63;;;6.18;;
44214;SDS011;29884;47.450;19.124;2022-08-21T08:22:27;5.82;;;5.35;;
44214;SDS011;29884;47.450;19.124;2022-08-21T08:24:53;5.90;;;5.50;;
44214;SDS011;29884;47.450;19.124;2022-08-21T08:27:20;6.05;;;5.75;;
44214;SDS011;29884;47.450;19.124;2022-08-21T08:29:46;6.88;;;6.40;;
44214;SDS011;29884;47.450;19.124;2022-08-21T08:32:12;7.13;;;6.63;;
44214;SDS011;29884;47.450;19.124;2022-08-21T08:34:39;7.30;;;6.78;;
44214;SDS011;29884;47.450;19.124;2022-08-21T08:37:05;7.20;;;6.78;;
44214;SDS011;29884;47.450;19.124;2022-08-21T08:39:33;7.20;;;6.63;;
44214;SDS011;29884;47.450;19.124;2022-08-21T08:42:09;7.18;;;6.78;;
44214;SDS011;29884;47.450;19.124;2022-08-21T08:44:42;7.25;;;6.78;;
44214;SDS011;29884;47.450;19.124;2022-08-21T08:47:10;7.20;;;6.80;;
44214;SDS011;29884;47.450;19.124;2022-08-21T08:49:40;7.60;;;7.05;;
44214;SDS011;29884;47.450;19.124;2022-08-21T08:52:31;6.75;;;6.25;;
44214;SDS011;29884;47.450;19.124;2022-08-21T08:57:31;8.02;;;7.53;;
44214;SDS011;29884;47.450;19.124;2022-08-21T08:59:57;7.80;;;7.30;;
44214;SDS011;29884;47.450;19.124;2022-08-21T09:02:25;7.90;;;7.43;;
44214;SDS011;29884;47.450;19.124;2022-08-21T09:04:53;8.45;;;7.82;;
44214;SDS011;29884;47.450;19.124;2022-08-21T09:12:45;7.32;;;6.72;;
44214;SDS011;29884;47.450;19.124;2022-08-21T09:21:22;8.57;;;7.97;;
44214;SDS011;29884;47.450;19.124;2022-08-21T09:27:13;7.47;;;7.07;;
44214;SDS011;29884;47.450;19.124;2022-08-21T09:29:45;8.10;;;7.63;;
44214;SDS011;29884;47.450;19.124;2022-08-21T09:32:17;7.68;;;7.07;;
44214;SDS011;29884;47.450;19.124;2022-08-21T09:37:47;8.43;;;7.82;;
44214;SDS011;29884;47.450;19.124;2022-08-21T09:42:58;9.35;;;8.50;;
44214;SDS011;29884;47.450;19.124;2022-08-21T09:45:26;8.32;;;7.82;;
44214;SDS011;29884;47.450;19.124;2022-08-21T09:47:52;8.38;;;7.70;;
44214;SDS011;29884;47.450;19.124;2022-08-21T09:50:22;8.25;;;7.75;;
44214;SDS011;29884;47.450;19.124;2022-08-21T09:52:51;8.73;;;8.15;;
44214;SDS011;29884;47.450;19.124;2022-08-21T09:55:46;8.40;;;7.80;;
44214;SDS011;29884;47.450;19.124;2022-08-21T09:58:34;8.05;;;7.55;;
44214;SDS011;29884;47.450;19.124;2022-08-21T10:01:02;10.10;;;9.52;;
44214;SDS011;29884;47.450;19.124;2022-08-21T10:03:30;9.32;;;8.50;;
44214;SDS011;29884;47.450;19.124;2022-08-21T10:08:30;8.80;;;8.10;;
44214;SDS011;29884;47.450;19.124;2022-08-21T10:11:01;9.07;;;8.40;;
44214;SDS011;29884;47.450;19.124;2022-08-21T10:13:51;9.20;;;8.70;;
44214;SDS011;29884;47.450;19.124;2022-08-21T10:19:30;9.32;;;8.82;;
44214;SDS011;29884;47.450;19.124;2022-08-21T10:22:02;10.43;;;9.55;;
44214;SDS011;29884;47.450;19.124;2022-08-21T10:24:33;10.60;;;9.90;;
44214;SDS011;29884;47.450;19.124;2022-08-21T10:27:40;10.35;;;9.68;;
44214;SDS011;29884;47.450;19.124;2022-08-21T10:30:08;9.90;;;9.20;;
44214;SDS011;29884;47.450;19.124;2022-08-21T10:35:33;10.35;;;9.65;;
44214;SDS011;29884;47.450;19.124;2022-08-21T10:46:53;10.00;;;9.35;;
44214;SDS011;29884;47.450;19.124;2022-08-21T10:49:40;11.63;;;10.93;;
44214;SDS011;29884;47.450;19.124;2022-08-21T10:54:42;10.30;;;9.70;;
44214;SDS011;29884;47.450;19.124;2022-08-21T10:57:39;10.38;;;9.77;;
44214;SDS011;29884;47.450;19.124;2022-08-21T11:00:07;9.82;;;9.20;;
44214;SDS011;29884;47.450;19.124;2022-08-21T11:05:14;11.77;;;10.88;;
44214;SDS011;29884;47.450;19.124;2022-08-21T11:07:53;11.63;;;10.82;;
44214;SDS011;29884;47.450;19.124;2022-08-21T11:10:29;10.50;;;9.57;;
44214;SDS011;29884;47.450;19.124;2022-08-21T11:19:22;11.02;;;10.02;;
44214;SDS011;29884;47.450;19.124;2022-08-21T11:22:13;11.13;;;10.40;;
44214;SDS011;29884;47.450;19.124;2022-08-21T11:27:44;13.15;;;12.27;;
44214;SDS011;29884;47.450;19.124;2022-08-21T11:30:14;11.85;;;11.07;;
44214;SDS011;29884;47.450;19.124;2022-08-21T11:35:48;11.88;;;11.07;;
44214;SDS011;29884;47.450;19.124;2022-08-21T11:41:37;14.18;;;12.63;;
44214;SDS011;29884;47.450;19.124;2022-08-21T11:44:23;12.45;;;11.57;;
44214;SDS011;29884;47.450;19.124;2022-08-21T11:47:25;13.05;;;12.15;;
44214;SDS011;29884;47.450;19.124;2022-08-21T11:50:32;12.43;;;11.65;;
44214;SDS011;29884;47.450;19.124;2022-08-21T11:53:12;14.05;;;13.15;;
44214;SDS011;29884;47.450;19.124;2022-08-21T11:55:51;12.23;;;11.52;;
44214;SDS011;29884;47.450;19.124;2022-08-21T11:58:24;10.98;;;10.35;;
44214;SDS011;29884;47.450;19.124;2022-08-21T12:03:27;11.93;;;11.13;;
44214;SDS011;29884;47.450;19.124;2022-08-21T12:06:02;14.00;;;13.10;;
44214;SDS011;29884;47.450;19.124;2022-08-21T12:13:56;12.82;;;11.93;;
44214;SDS011;29884;47.450;19.124;2022-08-21T12:16:32;11.20;;;10.38;;
44214;SDS011;29884;47.450;19.124;2022-08-21T12:19:08;12.23;;;11.27;;
44214;SDS011;29884;47.450;19.124;2022-08-21T12:24:33;11.90;;;11.00;;
44214;SDS011;29884;47.450;19.124;2022-08-21T12:29:49;12.43;;;11.63;;
44214;SDS011;29884;47.450;19.124;2022-08-21T12:34:48;11.60;;;10.88;;
44214;SDS011;29884;47.450;19.124;2022-08-21T12:37:24;12.45;;;11.55;;
44214;SDS011;29884;47.450;19.124;2022-08-21T12:39:52;12.50;;;11.55;;
44214;SDS011;29884;47.450;19.124;2022-08-21T12:42:42;11.30;;;10.73;;
44214;SDS011;29884;47.450;19.124;2022-08-21T12:45:16;12.98;;;12.05;;
44214;SDS011;29884;47.450;19.124;2022-08-21T12:47:55;12.65;;;11.85;;
44214;SDS011;29884;47.450;19.124;2022-08-21T12:55:51;11.77;;;10.63;;
44214;SDS011;29884;47.450;19.124;2022-08-21T12:58:20;11.10;;;10.40;;
44214;SDS011;29884;47.450;19.124;2022-08-21T13:00:53;10.45;;;9.70;;
44214;SDS011;29884;47.450;19.124;2022-08-21T13:03:45;12.63;;;11.63;;
44214;SDS011;29884;47.450;19.124;2022-08-21T13:06:15;10.60;;;9.85;;
44214;SDS011;29884;47.450;19.124;2022-08-21T13:08:44;11.30;;;10.50;;
44214;SDS011;29884;47.450;19.124;2022-08-21T13:11:11;12.30;;;11.27;;
44214;SDS011;29884;47.450;19.124;2022-08-21T13:13:40;12.70;;;11.95;;
44214;SDS011;29884;47.450;19.124;2022-08-21T13:16:07;13.05;;;12.05;;
44214;SDS011;29884;47.450;19.124;2022-08-21T13:18:35;13.50;;;12.50;;
44214;SDS011;29884;47.450;19.124;2022-08-21T13:21:18;13.70;;;12.73;;
44214;SDS011;29884;47.450;19.124;2022-08-21T13:23:45;13.10;;;12.25;;
44214;SDS011;29884;47.450;19.124;2022-08-21T13:26:12;12.88;;;12.07;;
44214;SDS011;29884;47.450;19.124;2022-08-21T13:28:42;12.77;;;11.85;;
44214;SDS011;29884;47.450;19.124;2022-08-21T13:31:12;13.90;;;12.88;;
44214;SDS011;29884;47.450;19.124;2022-08-21T13:33:43;13.13;;;12.13;;
44214;SDS011;29884;47.450;19.124;2022-08-21T13:36:26;14.32;;;13.02;;
44214;SDS011;29884;47.450;19.124;2022-08-21T13:38:56;14.73;;;13.85;;
44214;SDS011;29884;47.450;19.124;2022-08-21T13:41:25;14.93;;;13.93;;
44214;SDS011;29884;47.450;19.124;2022-08-21T13:46:26;14.63;;;13.52;;
44214;SDS011;29884;47.450;19.124;2022-08-21T13:48:55;14.32;;;13.25;;
44214;SDS011;29884;47.450;19.124;2022-08-21T13:51:21;14.50;;;13.50;;
44214;SDS011;29884;47.450;19.124;2022-08-21T13:53:51;14.02;;;13.02;;
44214;SDS011;29884;47.450;19.124;2022-08-21T13:57:00;17.23;;;15.98;;
44214;SDS011;29884;47.450;19.124;2022-08-21T13:59:11;15.57;;;14.48;;
44214;SDS011;29884;47.450;19.124;2022-08-21T14:01:49;16.73;;;15.52;;
44214;SDS011;29884;47.450;19.124;2022-08-21T14:04:23;15.77;;;14.68;;
44214;SDS011;29884;47.450;19.124;2022-08-21T14:06:59;17.08;;;15.88;;
44214;SDS011;29884;47.450;19.124;2022-08-21T14:09:39;16.35;;;15.15;;
44214;SDS011;29884;47.450;19.124;2022-08-21T14:12:12;16.02;;;14.70;;
44214;SDS011;29884;47.450;19.124;2022-08-21T14:14:48;14.70;;;13.68;;
44214;SDS011;29884;47.450;19.124;2022-08-21T14:17:25;14.43;;;13.70;;
44214;SDS011;29884;47.450;19.124;2022-08-21T14:19:56;14.77;;;13.88;;
44214;SDS011;29884;47.450;19.124;2022-08-21T14:25:05;16.25;;;15.10;;
44214;SDS011;29884;47.450;19.124;2022-08-21T14:27:33;14.18;;;13.27;;
44214;SDS011;29884;47.450;19.124;2022-08-21T14:30:10;13.52;;;12.52;;
44214;SDS011;29884;47.450;19.124;2022-08-21T14:32:42;14.90;;;13.98;;
44214;SDS011;29884;47.450;19.124;2022-08-21T14:35:09;14.30;;;13.40;;
44214;SDS011;29884;47.450;19.124;2022-08-21T14:37:35;14.75;;;13.85;;
44214;SDS011;29884;47.450;19.124;2022-08-21T14:40:02;13.95;;;13.15;;
44214;SDS011;29884;47.450;19.124;2022-08-21T14:42:29;15.73;;;14.82;;
44214;SDS011;29884;47.450;19.124;2022-08-21T14:44:57;13.88;;;12.75;;
44214;SDS011;29884;47.450;19.124;2022-08-21T14:47:26;13.07;;;12.32;;
44214;SDS011;29884;47.450;19.124;2022-08-21T14:49:53;15.70;;;14.80;;
44214;SDS011;29884;47.450;19.124;2022-08-21T14:52:19;14.10;;;13.10;;
44214;SDS011;29884;47.450;19.124;2022-08-21T14:54:45;14.27;;;13.23;;
44214;SDS011;29884;47.450;19.124;2022-08-21T14:57:11;12.75;;;12.07;;
44214;SDS011;29884;47.450;19.124;2022-08-21T14:59:38;12.27;;;11.65;;
44214;SDS011;29884;47.450;19.124;2022-08-21T15:02:04;13.05;;;12.25;;
44214;SDS011;29884;47.450;19.124;2022-08-21T15:04:31;14.23;;;13.48;;
44214;SDS011;29884;47.450;19.124;2022-08-21T15:06:57;13.73;;;12.95;;
44214;SDS011;29884;47.450;19.124;2022-08-21T15:09:23;12.57;;;11.80;;
44214;SDS011;29884;47.450;19.124;2022-08-21T15:11:50;13.55;;;12.75;;
44214;SDS011;29884;47.450;19.124;2022-08-21T15:14:20;12.73;;;12.05;;
44214;SDS011;29884;47.450;19.124;2022-08-21T15:16:49;12.30;;;11.60;;
44214;SDS011;29884;47.450;19.124;2022-08-21T15:19:15;11.88;;;11.38;;
44214;SDS011;29884;47.450;19.124;2022-08-21T15:21:41;13.23;;;12.32;;
44214;SDS011;29884;47.450;19.124;2022-08-21T15:24:07;13.15;;;12.35;;
44214;SDS011;29884;47.450;19.124;2022-08-21T15:26:33;13.27;;;12.57;;
44214;SDS011;29884;47.450;19.124;2022-08-21T15:29:00;11.40;;;10.80;;
44214;SDS011;29884;47.450;19.124;2022-08-21T15:31:26;12.15;;;11.48;;
44214;SDS011;29884;47.450;19.124;2022-08-21T15:33:53;12.88;;;12.27;;
44214;SDS011;29884;47.450;19.124;2022-08-21T15:36:20;12.10;;;11.40;;
44214;SDS011;29884;47.450;19.124;2022-08-21T15:38:45;13.38;;;12.68;;
44214;SDS011;29884;47.450;19.124;2022-08-21T15:41:11;13.88;;;13.02;;
44214;SDS011;29884;47.450;19.124;2022-08-21T15:43:56;12.25;;;11.65;;
44214;SDS011;29884;47.450;19.124;2022-08-21T15:46:21;11.93;;;11.13;;
44214;SDS011;29884;47.450;19.124;2022-08-21T15:48:47;12.05;;;11.35;;
44214;SDS011;29884;47.450;19.124;2022-08-21T15:51:14;12.23;;;11.63;;
44214;SDS011;29884;47.450;19.124;2022-08-21T15:53:41;12.73;;;12.15;;
44214;SDS011;29884;47.450;19.124;2022-08-21T15:56:32;11.95;;;11.35;;
44214;SDS011;29884;47.450;19.124;2022-08-21T15:59:02;11.93;;;11.23;;
44214;SDS011;29884;47.450;19.124;2022-08-21T16:01:30;11.43;;;10.82;;
44214;SDS011;29884;47.450;19.124;2022-08-21T16:03:56;12.77;;;12.05;;
44214;SDS011;29884;47.450;19.124;2022-08-21T16:06:22;12.25;;;11.63;;